Погода Сан-Фелис-ду-Шингуна неделю

Пара, Бразилия

17 - 23 июня
  • 17июня
    Сегодня
    +21°
    +33°
    Ясно и безоблачно
    ВремяПогодаТемператураВлажностьДавлениеВетер, м/сВероятность осадков
    02:00Ясно и безоблачно+22°C80 %740 мм1.5 м/с5 %
    05:00Ясно и безоблачно+22°C83 %741 мм1.6 м/с5 %
    08:00Ясно и безоблачно+27°C65 %742 мм1.5 м/с5 %
    11:00Ясно и безоблачно+31°C40 %741 мм2.8 м/с5 %
    14:00Ясно и безоблачно+32°C36 %739 мм2.1 м/с5 %
    17:00Ясно и безоблачно+30°C43 %739 мм2.5 м/с5 %
    20:00Ясно и безоблачно+28°C53 %740 мм2.0 м/с5 %
    23:00Ясно и безоблачно+24°C63 %740 мм1.9 м/с5 %
  • 18июня
    Вторник
    +20°
    +34°
    Облачно с прояснениями
    ВремяПогодаТемператураВлажностьДавлениеВетер, м/сВероятность осадков
    02:00Ясно и безоблачно+22°C74 %739 мм1.5 м/с5 %
    05:00Ясно и безоблачно+21°C79 %740 мм1.2 м/с5 %
    08:00Ясно и безоблачно+26°C60 %742 мм1.1 м/с5 %
    11:00Ясно и безоблачно+31°C39 %741 мм2.9 м/с5 %
    14:00Облачно с прояснениями+33°C34 %739 мм2.0 м/с2 %
    17:00Ясно и безоблачно+29°C46 %738 мм2.1 м/с5 %
    20:00Ясно и безоблачно+28°C62 %740 мм1.9 м/с5 %
    23:00Ясно и безоблачно+23°C68 %740 мм1.9 м/с5 %
  • 19июня
    Среда
    +20°
    +34°
    Практически безоблачно
    ВремяПогодаТемператураВлажностьДавлениеВетер, м/сВероятность осадков
    02:00Ясно и безоблачно+21°C81 %739 мм1.7 м/с5 %
    05:00Ясно и безоблачно+20°C87 %740 мм1.1 м/с5 %
    08:00Ясно и безоблачно+26°C63 %742 мм1.1 м/с5 %
    11:00Небольшая облачность+31°C38 %741 мм3.0 м/с5 %
    14:00Практически безоблачно+33°C34 %739 мм3.2 м/с5 %
    17:00Практически безоблачно+30°C42 %739 мм2.3 м/с5 %
    20:00Ясно и безоблачно+30°C49 %740 мм2.7 м/с5 %
    23:00Ясно и безоблачно+25°C61 %740 мм1.8 м/с5 %
  • 20июня
    Четверг
    +20°
    +34°
    Небольшая облачность
    ВремяПогодаТемператураВлажностьДавлениеВетер, м/сВероятность осадков
    02:00Ясно и безоблачно+22°C72 %739 мм1.4 м/с5 %
    05:00Ясно и безоблачно+21°C84 %739 мм1.4 м/с5 %
    08:00Ясно и безоблачно+27°C61 %742 мм1.2 м/с4 %
    11:00Ясно и безоблачно+32°C41 %741 мм2.8 м/с3 %
    14:00Небольшая облачность+33°C37 %739 мм2.9 м/с6 %
    17:00Ясно и безоблачно+30°C46 %739 мм2.2 м/с4 %
    20:00Ясно и безоблачно+29°C56 %740 мм2.2 м/с3 %
    23:00Ясно и безоблачно+24°C63 %740 мм1.9 м/с6 %
  • 21июня
    Пятница
    +20°
    +34°
    Облачно с прояснениями
    ВремяПогодаТемператураВлажностьДавлениеВетер, м/сВероятность осадков
    02:00Ясно и безоблачно+24°C66 %739 мм1.0 м/с4 %
    05:00Ясно и безоблачно+22°C77 %739 мм0.7 м/с5 %
    08:00Ясно и безоблачно+26°C62 %742 мм1.3 м/с5 %
    11:00Ясно и безоблачно+32°C36 %741 мм2.6 м/с4 %
    14:00Облачно с прояснениями+33°C33 %739 мм2.4 м/с4 %
    17:00Ясно и безоблачно+30°C53 %738 мм1.4 м/с5 %
    20:00Ясно и безоблачно+29°C48 %740 мм2.7 м/с5 %
    23:00Ясно и безоблачно+24°C57 %741 мм2.0 м/с5 %
Мы используем cookies
Соглашаюсь